createdAt,value
2022-09-02T00:00:06.836Z,7.73
2022-09-02T00:02:57.292Z,7.37
2022-09-02T00:05:46.288Z,8.00
2022-09-02T00:08:34.681Z,7.80
2022-09-02T00:11:27.567Z,8.17
2022-09-02T00:14:19.557Z,8.27
2022-09-02T00:17:09.535Z,7.90
2022-09-02T00:19:57.837Z,8.47
2022-09-02T00:22:46.353Z,8.33
2022-09-02T00:25:35.123Z,8.60
2022-09-02T00:28:23.619Z,8.80
2022-09-02T00:31:12.692Z,8.43
2022-09-02T00:34:02.486Z,9.10
2022-09-02T00:36:50.887Z,8.93
2022-09-02T00:39:40.155Z,9.30
2022-09-02T00:42:28.748Z,8.70
2022-09-02T00:45:18.309Z,9.10
2022-09-02T00:48:07.337Z,9.17
2022-09-02T00:50:57.276Z,9.30
2022-09-02T00:53:47.789Z,8.80
2022-09-02T00:56:39.516Z,8.77
2022-09-02T00:59:38.022Z,8.80
2022-09-02T01:02:29.092Z,9.10
2022-09-02T01:05:20.221Z,9.30
2022-09-02T01:08:10.038Z,9.33
2022-09-02T01:10:58.826Z,9.20
2022-09-02T01:13:47.270Z,9.77
2022-09-02T01:16:42.327Z,9.47
2022-09-02T01:19:35.932Z,10.17
2022-09-02T01:22:28.580Z,9.60
2022-09-02T01:25:20.328Z,9.50
2022-09-02T01:28:14.674Z,9.83
2022-09-02T01:31:03.362Z,10.10
2022-09-02T01:33:51.755Z,10.17
2022-09-02T01:36:43.644Z,10.20
2022-09-02T01:39:33.469Z,10.47
2022-09-02T01:42:22.637Z,10.87
2022-09-02T01:45:11.864Z,10.47
2022-09-02T01:48:00.361Z,11.00
2022-09-02T01:50:50.916Z,11.30
2022-09-02T01:53:39.301Z,10.70
2022-09-02T01:56:30.096Z,11.30
2022-09-02T01:59:21.038Z,11.07
2022-09-02T02:02:09.454Z,11.00
2022-09-02T02:04:58.141Z,10.77
2022-09-02T02:07:48.175Z,11.30
2022-09-02T02:10:36.938Z,10.87
2022-09-02T02:13:28.258Z,11.00
2022-09-02T02:16:17.801Z,11.00
2022-09-02T02:19:07.089Z,11.53
2022-09-02T02:21:55.860Z,11.30
2022-09-02T02:24:44.247Z,11.43
2022-09-02T02:27:32.631Z,11.57
2022-09-02T02:30:26.480Z,11.63
2022-09-02T02:33:15.375Z,11.83
2022-09-02T02:36:04.848Z,11.60
2022-09-02T02:38:53.264Z,11.70
2022-09-02T02:41:44.885Z,11.73
2022-09-02T02:44:35.113Z,11.90
2022-09-02T02:47:26.930Z,11.87
2022-09-02T02:50:19.481Z,11.80
2022-09-02T02:53:08.887Z,11.17
2022-09-02T02:56:01.949Z,11.70
2022-09-02T02:58:50.484Z,11.93
2022-09-02T03:01:39.236Z,11.90
2022-09-02T03:04:29.314Z,11.90
2022-09-02T03:07:18.482Z,11.47
2022-09-02T03:10:09.650Z,11.70
2022-09-02T03:13:00.556Z,11.83
2022-09-02T03:15:49.555Z,11.87
2022-09-02T03:18:38.001Z,11.23
2022-09-02T03:21:27.736Z,11.40
2022-09-02T03:24:16.293Z,11.63
2022-09-02T03:27:05.158Z,12.30
2022-09-02T03:29:53.761Z,11.70
2022-09-02T03:32:42.769Z,11.80
2022-09-02T03:35:31.643Z,11.27
2022-09-02T03:38:21.609Z,11.20
2022-09-02T03:41:09.961Z,10.97
2022-09-02T03:44:00.663Z,11.03
2022-09-02T03:46:50.403Z,10.73
2022-09-02T03:49:38.869Z,11.17
2022-09-02T03:52:27.540Z,11.93
2022-09-02T03:55:19.412Z,11.67
2022-09-02T03:58:08.707Z,11.53
2022-09-02T04:00:59.532Z,11.40
2022-09-02T04:03:48.680Z,11.60
2022-09-02T04:06:38.918Z,12.10
2022-09-02T04:09:27.529Z,12.33
2022-09-02T04:12:17.274Z,12.23
2022-09-02T04:15:08.224Z,11.73
2022-09-02T04:17:57.029Z,12.03
2022-09-02T04:20:45.999Z,11.83
2022-09-02T04:23:36.840Z,12.10
2022-09-02T04:26:25.838Z,12.23
2022-09-02T04:29:18.001Z,12.60
2022-09-02T04:32:09.308Z,12.77
2022-09-02T04:34:57.977Z,12.63
2022-09-02T04:37:49.145Z,12.57
2022-09-02T04:40:40.641Z,12.70
2022-09-02T04:43:29.163Z,12.60
2022-09-02T04:46:22.858Z,13.83
2022-09-02T04:49:22.914Z,12.67
2022-09-02T04:52:14.774Z,14.07
2022-09-02T04:55:03.293Z,13.10
2022-09-02T04:57:53.217Z,13.00
2022-09-02T05:00:43.147Z,16.87
2022-09-02T05:03:35.258Z,13.20
2022-09-02T05:06:26.364Z,11.40
2022-09-02T05:09:17.306Z,12.27
2022-09-02T05:12:10.050Z,12.30
2022-09-02T05:15:05.760Z,12.30
2022-09-02T05:17:55.954Z,11.33
2022-09-02T05:20:45.680Z,11.13
2022-09-02T05:23:34.774Z,11.87
2022-09-02T05:26:23.773Z,12.13
2022-09-02T05:29:14.386Z,11.77
2022-09-02T05:32:08.202Z,14.13
2022-09-02T05:34:59.087Z,11.43
2022-09-02T05:37:48.880Z,10.93
2022-09-02T05:40:38.156Z,11.63
2022-09-02T05:43:28.452Z,12.53
2022-09-02T05:46:18.909Z,13.00
2022-09-02T05:49:07.670Z,11.13
2022-09-02T05:52:19.310Z,10.00
2022-09-02T05:55:12.499Z,10.27
2022-09-02T05:58:01.771Z,14.00
2022-09-02T06:00:50.135Z,12.23
2022-09-02T06:03:39.233Z,9.07
2022-09-02T06:06:29.738Z,8.27
2022-09-02T06:09:22.170Z,8.00
2022-09-02T06:12:13.174Z,8.70
2022-09-02T06:15:03.079Z,7.60
2022-09-02T06:17:51.579Z,8.10
2022-09-02T06:20:41.718Z,7.17
2022-09-02T06:23:30.997Z,7.53
2022-09-02T06:26:23.324Z,8.43
2022-09-02T06:29:13.656Z,6.43
2022-09-02T06:32:02.267Z,6.30
2022-09-02T06:34:55.335Z,7.50
2022-09-02T06:37:46.328Z,6.97
2022-09-02T06:40:35.338Z,7.30
2022-09-02T06:43:24.199Z,7.40
2022-09-02T06:46:30.664Z,6.30
2022-09-02T06:49:22.351Z,6.37
2022-09-02T06:52:14.397Z,6.37
2022-09-02T06:55:04.959Z,7.10
2022-09-02T06:57:53.771Z,12.13
2022-09-02T07:00:43.206Z,6.47
2022-09-02T07:03:51.514Z,7.63
2022-09-02T07:06:42.238Z,9.73
2022-09-02T07:09:32.121Z,6.30
2022-09-02T07:12:28.071Z,15.43
2022-09-02T07:15:27.596Z,6.37
2022-09-02T07:18:16.094Z,5.40
2022-09-02T07:21:06.053Z,5.60
2022-09-02T07:23:54.571Z,5.87
2022-09-02T07:26:44.142Z,5.80
2022-09-02T07:29:34.587Z,6.40
2022-09-02T07:32:23.173Z,4.68
2022-09-02T07:35:11.713Z,5.47
2022-09-02T07:38:01.698Z,4.95
2022-09-02T07:40:50.824Z,5.70
2022-09-02T07:43:49.607Z,5.63
2022-09-02T07:46:40.502Z,5.78
2022-09-02T07:50:15.228Z,5.03
2022-09-02T07:52:38.940Z,4.05
2022-09-02T07:55:31.032Z,6.55
2022-09-02T07:58:22.487Z,5.18
2022-09-02T08:01:12.043Z,3.72
2022-09-02T08:04:05.608Z,5.38
2022-09-02T08:06:57.275Z,6.28
2022-09-02T08:09:45.673Z,3.45
2022-09-02T08:12:35.509Z,3.45
2022-09-02T08:15:24.581Z,4.00
2022-09-02T08:18:21.106Z,4.20
2022-09-02T08:21:11.090Z,7.45
2022-09-02T08:24:00.506Z,6.18
2022-09-02T08:26:49.036Z,4.30
2022-09-02T08:29:38.893Z,3.85
2022-09-02T08:32:27.204Z,16.50
2022-09-02T08:35:15.640Z,3.13
2022-09-02T08:38:06.486Z,3.35
2022-09-02T08:40:54.885Z,4.50
2022-09-02T08:43:45.735Z,7.43
2022-09-02T08:46:36.461Z,3.95
2022-09-02T08:49:31.175Z,3.50
2022-09-02T08:52:29.508Z,3.08
2022-09-02T08:55:22.507Z,2.60
2022-09-02T08:58:11.592Z,2.72
2022-09-02T09:01:06.768Z,4.15
2022-09-02T09:04:12.249Z,5.97
2022-09-02T09:07:25.637Z,5.60
2022-09-02T09:10:21.614Z,4.03
2022-09-02T09:13:21.270Z,2.80
2022-09-02T09:16:20.751Z,6.13
2022-09-02T09:19:13.819Z,5.85
2022-09-02T09:22:03.579Z,2.90
2022-09-02T09:24:52.410Z,2.65
2022-09-02T09:27:41.164Z,3.22
2022-09-02T09:30:30.541Z,8.27
2022-09-02T09:33:24.107Z,4.40
2022-09-02T09:36:14.262Z,14.63
2022-09-02T09:39:21.138Z,3.70
2022-09-02T09:42:15.250Z,13.40
2022-09-02T09:45:20.227Z,17.77
2022-09-02T09:48:27.599Z,8.43
2022-09-02T09:51:17.426Z,4.25
2022-09-02T09:54:20.543Z,3.13
2022-09-02T09:57:18.724Z,10.98
2022-09-02T10:00:22.106Z,3.65
2022-09-02T10:03:23.487Z,3.13
2022-09-02T10:06:22.341Z,6.65
2022-09-02T10:09:35.757Z,3.15
2022-09-02T10:12:33.314Z,5.88
2022-09-02T10:15:30.418Z,2.78
2022-09-02T10:18:29.863Z,4.80
2022-09-02T10:21:33.382Z,7.22
2022-09-02T10:24:36.858Z,5.82
2022-09-02T10:27:34.125Z,2.80
2022-09-02T10:30:23.958Z,5.50
2022-09-02T10:33:25.766Z,26.33
2022-09-02T10:36:28.748Z,4.13
2022-09-02T10:39:30.525Z,6.15
2022-09-02T10:42:29.411Z,4.25
2022-09-02T10:45:25.150Z,5.10
2022-09-02T10:48:28.990Z,10.68
2022-09-02T10:51:24.941Z,11.48
2022-09-02T10:54:31.024Z,4.30
2022-09-02T10:57:26.287Z,5.68
2022-09-02T11:00:17.352Z,3.35
2022-09-02T11:03:18.225Z,5.80
2022-09-02T11:06:13.091Z,7.03
2022-09-02T11:09:07.548Z,4.28
2022-09-02T11:12:01.761Z,4.50
2022-09-02T11:15:00.463Z,11.00
2022-09-02T11:17:57.378Z,18.88
2022-09-02T11:20:51.983Z,10.88
2022-09-02T11:23:45.831Z,14.20
2022-09-02T11:26:40.560Z,13.45
2022-09-02T11:29:38.608Z,3.60
2022-09-02T11:32:33.399Z,2.75
2022-09-02T11:35:27.542Z,7.47
2022-09-02T11:38:32.166Z,3.60
2022-09-02T11:41:35.812Z,2.58
2022-09-02T11:45:02.703Z,3.88
2022-09-02T11:48:33.333Z,2.90
2022-09-02T11:51:40.270Z,5.25
2022-09-02T11:54:34.765Z,4.40
2022-09-02T11:57:25.925Z,4.82
2022-09-02T12:00:31.672Z,9.48
2022-09-02T12:03:46.643Z,4.03
2022-09-02T12:06:39.538Z,8.38
2022-09-02T12:13:08.134Z,4.95
2022-09-02T12:16:30.070Z,2.95
2022-09-02T12:19:26.773Z,6.47
2022-09-02T12:22:38.385Z,5.18
2022-09-02T12:25:43.217Z,5.28
2022-09-02T12:28:32.097Z,2.90
2022-09-02T12:31:42.072Z,4.82
2022-09-02T12:34:56.776Z,2.60
2022-09-02T12:37:59.561Z,3.70
2022-09-02T12:40:57.024Z,3.53
2022-09-02T12:43:54.220Z,3.58
2022-09-02T12:46:55.741Z,4.05
2022-09-02T12:49:53.609Z,14.15
2022-09-02T12:52:45.734Z,9.55
2022-09-02T12:55:36.907Z,2.42
2022-09-02T12:58:25.907Z,3.88
2022-09-02T13:01:19.029Z,2.50
2022-09-02T13:04:37.339Z,3.65
2022-09-02T13:08:02.921Z,8.65
2022-09-02T13:11:39.967Z,3.50
2022-09-02T13:15:06.022Z,3.83
2022-09-02T13:18:33.891Z,4.50
2022-09-02T13:21:49.298Z,4.40
2022-09-02T13:25:08.247Z,3.10
2022-09-02T13:28:15.000Z,7.13
2022-09-02T13:31:14.038Z,4.85
2022-09-02T13:34:05.560Z,3.33
2022-09-02T13:36:54.184Z,2.60
2022-09-02T13:39:42.538Z,5.65
2022-09-02T13:42:32.763Z,7.07
2022-09-02T13:45:24.572Z,3.13
2022-09-02T13:48:27.182Z,3.35
2022-09-02T13:51:17.380Z,8.68
2022-09-02T13:54:22.789Z,2.95
2022-09-02T13:57:14.894Z,4.13
2022-09-02T14:00:03.804Z,3.63
2022-09-02T14:03:05.718Z,3.90
2022-09-02T14:05:57.378Z,2.70
2022-09-02T14:08:46.286Z,4.97
2022-09-02T14:11:43.945Z,2.95
2022-09-02T14:14:32.903Z,8.07
2022-09-02T14:17:25.894Z,2.95
2022-09-02T14:20:21.359Z,3.85
2022-09-02T14:23:17.958Z,4.88
2022-09-02T14:26:07.150Z,4.55
2022-09-02T14:28:55.851Z,4.10
2022-09-02T14:31:45.162Z,6.70
2022-09-02T14:34:35.882Z,9.43
2022-09-02T14:37:28.691Z,2.92
2022-09-02T14:40:17.908Z,2.95
2022-09-02T14:43:13.650Z,4.72
2022-09-02T14:46:07.683Z,18.25
2022-09-02T14:49:04.156Z,15.10
2022-09-02T14:51:55.412Z,7.75
2022-09-02T14:54:48.406Z,17.80
2022-09-02T14:57:39.220Z,15.73
2022-09-02T15:00:31.384Z,13.32
2022-09-02T15:03:23.581Z,15.70
2022-09-02T15:06:15.101Z,26.55
2022-09-02T15:09:04.277Z,2.50
2022-09-02T15:11:57.629Z,2.85
2022-09-02T15:14:49.153Z,2.90
2022-09-02T15:17:37.553Z,5.32
2022-09-02T15:20:26.734Z,2.40
2022-09-02T15:23:17.532Z,3.30
2022-09-02T15:26:05.880Z,2.97
2022-09-02T15:28:57.422Z,5.40
2022-09-02T15:31:46.055Z,2.97
2022-09-02T15:34:35.499Z,13.45
2022-09-02T15:37:24.577Z,3.88
2022-09-02T15:40:13.205Z,2.80
2022-09-02T15:43:01.993Z,2.88
2022-09-02T15:45:51.825Z,3.30
2022-09-02T15:48:40.851Z,2.90
2022-09-02T15:51:29.561Z,4.45
2022-09-02T15:54:19.513Z,3.40
2022-09-02T15:57:07.921Z,3.15
2022-09-02T15:59:56.327Z,3.85
2022-09-02T16:02:46.170Z,3.20
2022-09-02T16:05:34.626Z,4.05
2022-09-02T16:08:22.993Z,3.42
2022-09-02T16:11:11.361Z,2.95
2022-09-02T16:13:59.721Z,2.83
2022-09-02T16:16:49.376Z,4.13
2022-09-02T16:19:39.292Z,3.75
2022-09-02T16:22:27.580Z,2.58
2022-09-02T16:25:16.068Z,2.67
2022-09-02T16:28:04.710Z,2.47
2022-09-02T16:30:53.267Z,2.00
2022-09-02T16:33:42.613Z,3.78
2022-09-02T16:36:33.858Z,2.95
2022-09-02T16:39:22.437Z,2.42
2022-09-02T16:42:10.819Z,2.72
2022-09-02T16:44:59.253Z,2.70
2022-09-02T16:47:47.654Z,2.50
2022-09-02T16:50:36.056Z,3.03
2022-09-02T16:53:25.728Z,2.45
2022-09-02T16:56:14.738Z,3.63
2022-09-02T16:59:05.422Z,2.80
2022-09-02T17:01:55.363Z,3.70
2022-09-02T17:04:43.856Z,2.97
2022-09-02T17:07:32.200Z,3.10
2022-09-02T17:10:21.962Z,3.90
2022-09-02T17:13:10.317Z,2.50
2022-09-02T17:15:58.716Z,2.50
2022-09-02T17:18:47.512Z,4.53
2022-09-02T17:21:37.749Z,3.50
2022-09-02T17:24:30.810Z,3.30
2022-09-02T17:27:23.487Z,7.38
2022-09-02T17:30:13.478Z,3.47
2022-09-02T17:33:02.085Z,5.38
2022-09-02T17:35:56.513Z,4.40
2022-09-02T17:38:45.645Z,3.65
2022-09-02T17:41:51.485Z,3.70
2022-09-02T17:44:42.590Z,3.65
2022-09-02T17:47:31.840Z,5.28
2022-09-02T17:50:20.262Z,4.72
2022-09-02T17:53:08.561Z,7.72
2022-09-02T17:56:06.301Z,4.78
2022-09-02T17:59:06.103Z,4.25
2022-09-02T18:02:14.137Z,4.05
2022-09-02T18:05:09.685Z,5.90
2022-09-02T18:08:06.021Z,4.25
2022-09-02T18:10:58.075Z,8.77
2022-09-02T18:13:58.045Z,4.75
2022-09-02T18:16:57.860Z,4.57
2022-09-02T18:19:58.744Z,4.28
2022-09-02T18:23:18.986Z,3.80
2022-09-02T18:26:16.267Z,5.25
2022-09-02T18:29:14.743Z,4.32
2022-09-02T18:32:13.742Z,5.35
2022-09-02T18:35:13.081Z,5.85
2022-09-02T18:38:10.112Z,4.88
2022-09-02T18:41:10.519Z,4.65
2022-09-02T18:44:11.383Z,4.10
2022-09-02T18:47:03.449Z,3.75
2022-09-02T18:49:56.184Z,3.45
2022-09-02T18:52:46.037Z,3.63
2022-09-02T18:55:36.426Z,6.65
2022-09-02T18:58:35.134Z,3.60
2022-09-02T19:01:27.362Z,4.75
2022-09-02T19:04:15.850Z,3.90
2022-09-02T19:07:30.138Z,4.00
2022-09-02T19:10:19.895Z,6.00
2022-09-02T19:13:08.413Z,7.53
2022-09-02T19:16:02.015Z,4.50
2022-09-02T19:18:53.697Z,4.22
2022-09-02T19:21:47.194Z,3.67
2022-09-02T19:24:42.769Z,3.75
2022-09-02T19:27:34.974Z,3.90
2022-09-02T19:30:24.723Z,4.07
2022-09-02T19:33:14.825Z,3.67
2022-09-02T19:36:03.566Z,3.40
2022-09-02T19:38:51.864Z,2.90
2022-09-02T19:41:40.597Z,3.75
2022-09-02T19:44:30.692Z,3.27
2022-09-02T19:50:28.677Z,3.83
2022-09-02T19:53:25.332Z,4.10
2022-09-02T19:56:14.384Z,3.67
2022-09-02T19:59:05.556Z,3.30
2022-09-02T20:01:56.364Z,3.20
2022-09-02T20:04:45.017Z,2.93
2022-09-02T20:07:33.376Z,4.23
2022-09-02T20:10:27.602Z,2.80
2022-09-02T20:13:18.015Z,2.75
2022-09-02T20:16:07.478Z,3.53
2022-09-02T20:18:57.874Z,2.77
2022-09-02T20:21:47.494Z,3.70
2022-09-02T20:24:36.147Z,2.93
2022-09-02T20:27:40.036Z,4.20
2022-09-02T20:30:34.244Z,3.03
2022-09-02T20:33:24.162Z,4.57
2022-09-02T20:36:26.319Z,2.83
2022-09-02T20:39:33.427Z,3.00
2022-09-02T20:42:39.337Z,3.07
2022-09-02T20:45:33.345Z,3.83
2022-09-02T20:48:39.582Z,2.97
2022-09-02T20:51:36.602Z,3.40
2022-09-02T20:54:36.816Z,3.80
2022-09-02T20:57:38.460Z,3.13
2022-09-02T21:00:26.782Z,3.00
2022-09-02T21:03:17.914Z,3.17
2022-09-02T21:06:09.198Z,3.33
2022-09-02T21:09:03.971Z,3.73
2022-09-02T21:12:00.516Z,3.00
2022-09-02T21:14:53.494Z,4.03
2022-09-02T21:17:48.826Z,3.53
2022-09-02T21:20:44.968Z,3.10
2022-09-02T21:23:38.616Z,3.10
2022-09-02T21:26:40.222Z,3.13
2022-09-02T21:29:33.184Z,3.33
2022-09-02T21:32:29.662Z,3.30
2022-09-02T21:35:21.356Z,3.00
2022-09-02T21:38:15.410Z,3.80
2022-09-02T21:41:21.682Z,3.10
2022-09-02T21:44:20.694Z,3.23
2022-09-02T21:47:20.837Z,3.30
2022-09-02T21:50:21.895Z,3.40
2022-09-02T21:53:19.167Z,5.37
2022-09-02T21:56:24.055Z,3.40
2022-09-02T21:59:28.476Z,3.27
2022-09-02T22:02:25.918Z,3.73
2022-09-02T22:05:27.623Z,3.33
2022-09-02T22:08:26.169Z,3.20
2022-09-02T22:11:22.355Z,2.80
2022-09-02T22:14:15.450Z,7.27
2022-09-02T22:17:14.555Z,4.13
2022-09-02T22:20:05.520Z,3.00
2022-09-02T22:22:58.676Z,3.53
2022-09-02T22:25:48.767Z,3.47
2022-09-02T22:28:43.217Z,3.77
2022-09-02T22:31:36.133Z,3.80
2022-09-02T22:34:28.289Z,3.50
2022-09-02T22:37:22.398Z,3.93
2022-09-02T22:40:14.325Z,2.93
2022-09-02T22:43:05.816Z,5.00
2022-09-02T22:46:13.605Z,3.90
2022-09-02T22:49:26.022Z,3.43
2022-09-02T22:52:44.756Z,3.43
2022-09-02T22:55:47.525Z,3.87
2022-09-02T22:58:58.606Z,3.60
2022-09-02T23:01:55.882Z,4.50
2022-09-02T23:04:58.908Z,3.00
2022-09-02T23:07:48.572Z,4.20
2022-09-02T23:10:43.729Z,3.27
2022-09-02T23:13:46.026Z,3.57
2022-09-02T23:16:48.278Z,3.33
2022-09-02T23:19:50.135Z,3.83
2022-09-02T23:23:11.164Z,4.07
2022-09-02T23:26:10.572Z,3.67
2022-09-02T23:29:26.074Z,3.67
2022-09-02T23:32:45.059Z,3.90
2022-09-02T23:35:39.444Z,4.57
2022-09-02T23:38:53.586Z,3.10
2022-09-02T23:41:42.132Z,3.77
2022-09-02T23:44:31.312Z,4.23
2022-09-02T23:47:37.778Z,3.40
2022-09-02T23:50:35.924Z,3.40
2022-09-02T23:53:25.822Z,5.73
2022-09-02T23:56:28.721Z,4.60
2022-09-02T23:59:37.464Z,4.10
